createdAt,value
2019-03-28T00:01:52.070Z,992.44
2019-03-28T00:02:52.309Z,992.40
2019-03-28T00:04:56.475Z,992.38
2019-03-28T00:05:56.716Z,992.41
2019-03-28T00:08:00.887Z,992.38
2019-03-28T00:09:01.122Z,992.39
2019-03-28T00:11:05.277Z,992.35
2019-03-28T00:12:05.512Z,992.39
2019-03-28T00:14:09.694Z,992.42
2019-03-28T00:15:09.930Z,992.43
2019-03-28T00:17:15.097Z,992.47
2019-03-28T00:18:15.329Z,992.47
2019-03-28T00:20:19.507Z,992.44
2019-03-28T00:21:19.733Z,992.47
2019-03-28T00:23:23.911Z,992.38
2019-03-28T00:24:24.148Z,992.42
2019-03-28T00:26:30.549Z,992.43
2019-03-28T00:27:28.538Z,992.45
2019-03-28T00:29:21.646Z,992.49
2019-03-28T00:30:21.886Z,992.44
2019-03-28T00:32:26.387Z,992.50
2019-03-28T00:33:26.273Z,992.50
2019-03-28T00:35:30.448Z,992.51
2019-03-28T00:36:30.692Z,992.53
2019-03-28T00:38:34.867Z,992.49
2019-03-28T00:39:35.104Z,992.51
2019-03-28T00:41:39.257Z,992.50
2019-03-28T00:42:39.493Z,992.48
2019-03-28T00:44:43.669Z,992.45
2019-03-28T00:45:44.646Z,992.46
2019-03-28T00:47:48.058Z,992.40
2019-03-28T00:48:48.297Z,992.44
2019-03-28T00:50:52.472Z,992.37
2019-03-28T00:51:52.709Z,992.42
2019-03-28T00:53:56.882Z,992.39
2019-03-28T00:54:57.119Z,992.38
2019-03-28T00:57:01.285Z,992.39
2019-03-28T00:58:01.525Z,992.38
2019-03-28T00:59:54.620Z,992.36
2019-03-28T01:00:54.856Z,992.37
2019-03-28T01:02:59.013Z,992.29
2019-03-28T01:03:59.250Z,992.31
2019-03-28T01:06:03.420Z,992.33
2019-03-28T01:07:03.656Z,992.34
2019-03-28T01:09:07.831Z,992.33
2019-03-28T01:10:08.073Z,992.36
2019-03-28T01:12:12.245Z,992.34
2019-03-28T01:13:12.482Z,992.35
2019-03-28T01:15:16.661Z,992.36
2019-03-28T01:16:16.901Z,992.36
2019-03-28T01:18:21.053Z,992.36
2019-03-28T01:19:21.289Z,992.31
2019-03-28T01:21:25.472Z,992.32
2019-03-28T01:22:25.701Z,992.28
2019-03-28T01:24:29.856Z,992.30
2019-03-28T01:25:30.095Z,992.30
2019-03-28T01:27:34.269Z,992.32
2019-03-28T01:28:34.507Z,992.31
2019-03-28T01:30:38.685Z,992.30
2019-03-28T01:31:38.922Z,992.30
2019-03-28T01:33:43.222Z,992.28
2019-03-28T01:34:43.308Z,992.33
2019-03-28T01:36:47.488Z,992.31
2019-03-28T01:37:47.723Z,992.26
2019-03-28T01:39:40.805Z,992.23
2019-03-28T01:40:41.044Z,992.20
2019-03-28T01:42:45.221Z,992.22
2019-03-28T01:43:45.456Z,992.24
2019-03-28T01:45:49.633Z,992.21
2019-03-28T01:46:50.315Z,992.18
2019-03-28T01:48:54.026Z,992.16
2019-03-28T01:49:54.263Z,992.15
2019-03-28T01:51:58.444Z,992.17
2019-03-28T01:52:58.688Z,992.17
2019-03-28T01:55:02.835Z,992.18
2019-03-28T01:56:03.074Z,992.16
2019-03-28T01:58:07.246Z,992.22
2019-03-28T01:59:07.485Z,992.17
2019-03-28T02:01:11.663Z,992.20
2019-03-28T02:02:11.901Z,992.19
2019-03-28T02:04:16.055Z,992.14
2019-03-28T02:05:16.291Z,992.12
2019-03-28T02:07:20.465Z,992.12
2019-03-28T02:08:20.702Z,992.11
2019-03-28T02:10:24.857Z,992.12
2019-03-28T02:11:25.091Z,992.13
2019-03-28T02:13:29.271Z,992.13
2019-03-28T02:14:29.508Z,992.15
2019-03-28T02:16:33.680Z,992.15
2019-03-28T02:17:33.918Z,992.15
2019-03-28T02:19:26.999Z,992.17
2019-03-28T02:20:27.237Z,992.10
2019-03-28T02:22:31.407Z,992.14
2019-03-28T02:23:31.644Z,992.10
2019-03-28T02:25:35.795Z,992.12
2019-03-28T02:26:36.031Z,992.12
2019-03-28T02:28:40.205Z,992.01
2019-03-28T02:29:40.445Z,992.08
2019-03-28T02:31:44.621Z,992.06
2019-03-28T02:32:44.859Z,992.06
2019-03-28T02:34:49.307Z,992.11
2019-03-28T02:35:49.251Z,992.07
2019-03-28T02:37:54.437Z,992.10
2019-03-28T02:38:54.679Z,992.09
2019-03-28T02:40:58.837Z,992.10
2019-03-28T02:41:59.079Z,992.12
2019-03-28T02:44:04.258Z,992.14
2019-03-28T02:45:04.496Z,992.17
2019-03-28T02:47:08.672Z,992.16
2019-03-28T02:48:08.909Z,992.18
2019-03-28T02:50:03.002Z,992.19
2019-03-28T02:51:03.908Z,992.25
2019-03-28T02:53:07.414Z,992.28
2019-03-28T02:54:07.658Z,992.23
2019-03-28T02:56:11.803Z,992.27
2019-03-28T02:57:12.037Z,992.26
2019-03-28T02:59:16.209Z,992.24
2019-03-28T03:00:16.445Z,992.27
2019-03-28T03:02:20.596Z,992.24
2019-03-28T03:03:20.839Z,992.25
2019-03-28T03:05:25.013Z,992.22
2019-03-28T03:06:25.251Z,992.21
2019-03-28T03:08:29.453Z,992.22
2019-03-28T03:09:29.680Z,992.26
2019-03-28T03:11:33.834Z,992.22
2019-03-28T03:12:34.072Z,992.28
2019-03-28T03:14:39.271Z,992.30
2019-03-28T03:15:39.514Z,992.32
2019-03-28T03:17:43.651Z,992.35
2019-03-28T03:18:43.892Z,992.32
2019-03-28T03:20:48.067Z,992.35
2019-03-28T03:21:48.370Z,992.31
2019-03-28T03:23:52.476Z,992.39
2019-03-28T03:24:52.710Z,992.39
2019-03-28T03:26:56.863Z,992.39
2019-03-28T03:27:59.153Z,992.39
2019-03-28T03:29:50.206Z,992.36
2019-03-28T03:30:50.433Z,992.33
2019-03-28T03:32:54.590Z,992.35
2019-03-28T03:33:54.819Z,992.37
2019-03-28T03:35:58.997Z,992.36
2019-03-28T03:36:59.228Z,992.34
2019-03-28T03:39:03.400Z,992.36
2019-03-28T03:40:03.641Z,992.39
2019-03-28T03:42:07.789Z,992.39
2019-03-28T03:43:08.026Z,992.41
2019-03-28T03:45:12.201Z,992.43
2019-03-28T03:46:12.438Z,992.44
2019-03-28T03:48:16.590Z,992.39
2019-03-28T03:49:16.826Z,992.39
2019-03-28T03:51:20.997Z,992.40
2019-03-28T03:52:21.234Z,992.42
2019-03-28T03:54:25.410Z,992.40
2019-03-28T03:55:25.644Z,992.40
2019-03-28T03:57:29.814Z,992.39
2019-03-28T03:58:30.054Z,992.40
2019-03-28T04:00:34.205Z,992.43
2019-03-28T04:01:34.440Z,992.42
2019-03-28T04:03:38.616Z,992.47
2019-03-28T04:04:38.856Z,992.47
2019-03-28T04:06:43.029Z,992.45
2019-03-28T04:07:43.273Z,992.46
2019-03-28T04:09:36.347Z,992.45
2019-03-28T04:10:36.586Z,992.48
2019-03-28T04:12:40.758Z,992.53
2019-03-28T04:13:41.001Z,992.53
2019-03-28T04:15:45.164Z,992.58
2019-03-28T04:16:45.401Z,992.53
2019-03-28T04:18:49.557Z,992.59
2019-03-28T04:19:49.794Z,992.64
2019-03-28T04:21:53.981Z,992.60
2019-03-28T04:22:54.213Z,992.62
2019-03-28T04:24:58.367Z,992.66
2019-03-28T04:25:58.603Z,992.63
2019-03-28T04:28:02.782Z,992.64
2019-03-28T04:29:03.032Z,992.66
2019-03-28T04:31:07.271Z,992.64
2019-03-28T04:32:07.428Z,992.61
2019-03-28T04:34:12.598Z,992.66
2019-03-28T04:35:12.838Z,992.62
2019-03-28T04:37:17.009Z,992.73
2019-03-28T04:38:17.248Z,992.70
2019-03-28T04:40:21.432Z,992.71
2019-03-28T04:41:21.666Z,992.73
2019-03-28T04:43:26.854Z,992.75
2019-03-28T04:44:27.095Z,992.77
2019-03-28T04:46:31.266Z,992.77
2019-03-28T04:47:31.502Z,992.77
2019-03-28T04:49:25.591Z,992.72
2019-03-28T04:50:25.827Z,992.73
2019-03-28T04:52:31.945Z,992.69
2019-03-28T04:53:30.248Z,992.70
2019-03-28T04:55:34.402Z,992.73
2019-03-28T04:56:34.635Z,992.72
2019-03-28T04:58:44.352Z,992.76
2019-03-28T04:59:39.049Z,992.75
2019-03-28T05:01:43.231Z,992.75
2019-03-28T05:02:45.901Z,992.77
2019-03-28T05:04:47.622Z,992.79
2019-03-28T05:05:47.853Z,992.77
2019-03-28T05:07:52.030Z,992.83
2019-03-28T05:08:52.265Z,992.82
2019-03-28T05:10:56.423Z,992.86
2019-03-28T05:11:56.661Z,992.89
2019-03-28T05:14:01.849Z,992.91
2019-03-28T05:15:02.088Z,992.89
2019-03-28T05:17:06.330Z,992.93
2019-03-28T05:18:06.586Z,992.92
2019-03-28T05:19:59.567Z,992.94
2019-03-28T05:20:59.806Z,992.97
2019-03-28T05:23:03.984Z,992.97
2019-03-28T05:24:04.219Z,992.91
2019-03-28T05:26:08.391Z,992.94
2019-03-28T05:27:08.630Z,992.94
2019-03-28T05:29:12.791Z,992.95
2019-03-28T05:30:13.027Z,992.97
2019-03-28T05:32:17.200Z,993.01
2019-03-28T05:33:17.543Z,993.01
2019-03-28T05:35:21.588Z,993.01
2019-03-28T05:36:21.823Z,993.04
2019-03-28T05:38:25.995Z,993.05
2019-03-28T05:39:26.236Z,993.03
2019-03-28T05:41:30.403Z,993.06
2019-03-28T05:42:30.648Z,993.04
2019-03-28T05:44:34.788Z,993.04
2019-03-28T05:45:35.023Z,993.08
2019-03-28T05:47:39.189Z,993.06
2019-03-28T05:48:39.425Z,993.07
2019-03-28T05:50:43.570Z,993.05
2019-03-28T05:51:43.807Z,993.06
2019-03-28T05:53:47.981Z,993.10
2019-03-28T05:54:48.220Z,993.11
2019-03-28T05:56:52.390Z,993.10
2019-03-28T05:57:52.630Z,993.14
2019-03-28T05:59:45.704Z,993.13
2019-03-28T06:00:45.943Z,993.18
2019-03-28T06:02:50.545Z,993.12
2019-03-28T06:03:50.351Z,993.11
2019-03-28T06:05:54.495Z,993.12
2019-03-28T06:06:54.735Z,993.16
2019-03-28T06:08:58.909Z,993.10
2019-03-28T06:09:59.143Z,993.15
2019-03-28T06:12:03.317Z,993.16
2019-03-28T06:13:03.555Z,993.15
2019-03-28T06:15:07.699Z,993.15
2019-03-28T06:16:07.936Z,993.19
2019-03-28T06:18:12.106Z,993.16
2019-03-28T06:19:12.418Z,993.22
2019-03-28T06:21:16.487Z,993.20
2019-03-28T06:22:16.723Z,993.21
2019-03-28T06:24:20.889Z,993.24
2019-03-28T06:25:21.127Z,993.24
2019-03-28T06:27:25.301Z,993.31
2019-03-28T06:28:25.611Z,993.34
2019-03-28T06:30:29.692Z,993.32
2019-03-28T06:31:29.923Z,993.34
2019-03-28T06:33:34.555Z,993.37
2019-03-28T06:34:34.334Z,993.32
2019-03-28T06:36:38.512Z,993.38
2019-03-28T06:37:38.756Z,993.37
2019-03-28T06:39:31.870Z,993.36
2019-03-28T06:40:32.103Z,993.38
2019-03-28T06:42:36.275Z,993.38
2019-03-28T06:43:36.511Z,993.36
2019-03-28T06:45:40.663Z,993.43
2019-03-28T06:46:40.902Z,993.40
2019-03-28T06:48:45.075Z,993.40
2019-03-28T06:49:45.312Z,993.44
2019-03-28T06:51:49.485Z,993.44
2019-03-28T06:52:49.720Z,993.45
2019-03-28T06:54:53.870Z,993.51
2019-03-28T06:55:54.104Z,993.50
2019-03-28T06:57:58.275Z,993.47
2019-03-28T06:58:58.513Z,993.54
2019-03-28T07:01:02.666Z,993.53
2019-03-28T07:02:02.903Z,993.49
2019-03-28T07:04:07.072Z,993.54
2019-03-28T07:05:07.312Z,993.58
2019-03-28T07:07:11.476Z,993.67
2019-03-28T07:08:11.713Z,993.61
2019-03-28T07:10:15.863Z,993.65
2019-03-28T07:11:16.100Z,993.67
2019-03-28T07:13:20.271Z,993.71
2019-03-28T07:14:20.509Z,993.72
2019-03-28T07:16:24.660Z,993.69
2019-03-28T07:17:24.899Z,993.68
2019-03-28T07:19:18.000Z,993.69
2019-03-28T07:20:18.242Z,993.67
2019-03-28T07:22:22.413Z,993.73
2019-03-28T07:23:22.655Z,993.72
2019-03-28T07:25:26.832Z,993.76
2019-03-28T07:26:27.045Z,993.73
2019-03-28T07:28:31.222Z,993.76
2019-03-28T07:29:31.460Z,993.76
2019-03-28T07:31:35.771Z,993.78
2019-03-28T07:32:35.853Z,993.76
2019-03-28T07:34:40.124Z,993.73
2019-03-28T07:35:40.273Z,993.76
2019-03-28T07:37:44.446Z,993.72
2019-03-28T07:38:44.687Z,993.72
2019-03-28T07:40:48.845Z,993.70
2019-03-28T07:41:49.086Z,993.68
2019-03-28T07:43:53.261Z,993.71
2019-03-28T07:44:53.500Z,993.67
2019-03-28T07:46:57.675Z,993.72
2019-03-28T07:47:57.921Z,993.72
2019-03-28T07:49:50.994Z,993.75
2019-03-28T07:50:51.234Z,993.76
2019-03-28T07:52:55.422Z,993.76
2019-03-28T07:53:55.656Z,993.76
2019-03-28T07:55:59.808Z,993.76
2019-03-28T07:57:00.043Z,993.77
2019-03-28T07:59:04.213Z,993.77
2019-03-28T08:00:05.385Z,993.76
2019-03-28T08:02:08.651Z,993.88
2019-03-28T08:03:08.883Z,993.90
2019-03-28T08:05:13.036Z,993.86
2019-03-28T08:06:13.275Z,993.96
2019-03-28T08:08:17.450Z,993.93
2019-03-28T08:09:17.852Z,993.93
2019-03-28T08:11:21.958Z,993.91
2019-03-28T08:12:23.192Z,993.90
2019-03-28T08:14:26.266Z,993.91
2019-03-28T08:15:26.507Z,993.94
2019-03-28T08:17:30.690Z,994.04
2019-03-28T08:18:30.929Z,994.04
2019-03-28T08:20:35.102Z,994.03
2019-03-28T08:21:35.347Z,994.03
2019-03-28T08:23:39.526Z,993.99
2019-03-28T08:24:39.767Z,993.98
2019-03-28T08:26:43.927Z,993.98
2019-03-28T08:27:44.169Z,993.92
2019-03-28T08:29:37.278Z,993.93
2019-03-28T08:30:37.519Z,993.95
2019-03-28T08:32:41.700Z,993.95
2019-03-28T08:33:41.942Z,993.93
2019-03-28T08:35:46.111Z,993.96
2019-03-28T08:36:46.351Z,993.96
2019-03-28T08:38:50.532Z,994.14
2019-03-28T08:39:50.775Z,994.15
2019-03-28T08:41:54.933Z,994.29
2019-03-28T08:42:55.175Z,994.59
2019-03-28T08:44:59.359Z,994.47
2019-03-28T08:45:59.602Z,994.46
2019-03-28T08:48:03.792Z,994.41
2019-03-28T08:49:04.033Z,994.39
2019-03-28T08:51:08.194Z,994.36
2019-03-28T08:52:11.619Z,994.36
2019-03-28T08:54:12.622Z,994.52
2019-03-28T08:55:12.864Z,994.63
2019-03-28T08:57:17.026Z,994.94
2019-03-28T08:58:17.272Z,995.02
2019-03-28T09:00:32.210Z,995.11
2019-03-28T09:01:21.708Z,995.15
2019-03-28T09:03:25.895Z,995.26
2019-03-28T09:04:26.137Z,995.31
2019-03-28T09:06:31.325Z,995.35
2019-03-28T09:07:31.568Z,995.46
2019-03-28T09:09:24.690Z,995.49
2019-03-28T09:10:24.935Z,995.46
2019-03-28T09:12:29.129Z,995.44
2019-03-28T09:13:29.377Z,995.39
2019-03-28T09:15:43.746Z,995.42
2019-03-28T09:16:33.801Z,995.39
2019-03-28T09:18:37.997Z,995.31
2019-03-28T09:19:39.078Z,995.38
2019-03-28T09:21:42.423Z,995.38
2019-03-28T09:22:42.673Z,995.31
2019-03-28T09:24:46.871Z,995.32
2019-03-28T09:25:47.202Z,995.34
2019-03-28T09:27:51.813Z,995.08
2019-03-28T09:28:51.572Z,995.25
2019-03-28T09:30:55.753Z,994.17
2019-03-28T09:31:56.019Z,995.30
2019-03-28T09:34:00.223Z,994.59
2019-03-28T09:35:00.474Z,995.13
2019-03-28T09:37:04.652Z,994.89
2019-03-28T09:38:04.904Z,995.11
2019-03-28T09:39:58.031Z,995.11
2019-03-28T09:40:58.282Z,994.41
2019-03-28T09:43:02.481Z,994.89
2019-03-28T09:44:02.733Z,994.84
2019-03-28T09:46:06.915Z,994.86
2019-03-28T09:47:07.166Z,995.02
2019-03-28T09:49:11.365Z,994.78
2019-03-28T09:50:11.616Z,993.97
2019-03-28T09:52:15.804Z,994.76
2019-03-28T09:53:16.056Z,994.55
2019-03-28T09:55:20.254Z,994.44
2019-03-28T09:56:20.573Z,994.33
2019-03-28T09:58:24.703Z,994.39
2019-03-28T09:59:24.957Z,994.36
2019-03-28T10:01:29.132Z,994.28
2019-03-28T10:02:29.383Z,994.27
2019-03-28T10:04:33.580Z,994.33
2019-03-28T10:05:33.827Z,994.33
2019-03-28T10:07:38.649Z,994.32
2019-03-28T10:08:38.309Z,994.28
2019-03-28T10:10:42.505Z,994.34
2019-03-28T10:11:42.753Z,994.23
2019-03-28T10:13:46.953Z,994.20
2019-03-28T10:14:47.198Z,994.09
2019-03-28T10:16:51.371Z,994.08
2019-03-28T10:17:51.622Z,994.12
2019-03-28T10:19:45.798Z,994.13
2019-03-28T10:20:44.995Z,994.05
2019-03-28T10:22:49.248Z,994.07
2019-03-28T10:23:49.578Z,993.97
2019-03-28T10:25:53.750Z,993.95
2019-03-28T10:26:54.000Z,994.05
2019-03-28T10:28:58.338Z,994.09
2019-03-28T10:29:58.733Z,994.00
2019-03-28T10:32:02.899Z,994.06
2019-03-28T10:33:03.145Z,994.02
2019-03-28T10:35:07.375Z,993.97
2019-03-28T10:36:07.586Z,993.99
2019-03-28T10:38:11.786Z,994.03
2019-03-28T10:39:12.095Z,994.05
2019-03-28T10:41:16.300Z,994.07
2019-03-28T10:42:16.548Z,994.06
2019-03-28T10:44:20.738Z,993.98
2019-03-28T10:45:20.986Z,994.01
2019-03-28T10:47:25.166Z,994.03
2019-03-28T10:48:25.410Z,993.97
2019-03-28T10:50:40.279Z,994.02
2019-03-28T10:51:29.851Z,994.01
2019-03-28T10:53:34.047Z,994.01
2019-03-28T10:54:34.294Z,994.01
2019-03-28T10:56:51.117Z,993.96
2019-03-28T10:57:38.715Z,994.00
2019-03-28T10:59:31.838Z,994.03
2019-03-28T11:00:32.088Z,993.98
2019-03-28T11:02:36.273Z,993.97
2019-03-28T11:03:36.519Z,993.93
2019-03-28T11:05:40.891Z,993.87
2019-03-28T11:06:40.962Z,993.85
2019-03-28T11:08:45.198Z,993.87
2019-03-28T11:09:45.449Z,993.90
2019-03-28T11:11:49.623Z,993.84
2019-03-28T11:12:49.868Z,993.84
2019-03-28T11:14:54.065Z,993.81
2019-03-28T11:15:54.384Z,993.79
2019-03-28T11:17:58.479Z,993.72
2019-03-28T11:18:58.725Z,993.70
2019-03-28T11:21:02.922Z,993.66
2019-03-28T11:22:03.166Z,993.61
2019-03-28T11:24:08.376Z,993.54
2019-03-28T11:25:08.622Z,993.60
2019-03-28T11:27:12.800Z,993.65
2019-03-28T11:28:13.047Z,993.67
2019-03-28T11:30:18.575Z,993.66
2019-03-28T11:31:17.737Z,993.69
2019-03-28T11:33:22.199Z,993.71
2019-03-28T11:34:21.892Z,993.70
2019-03-28T11:36:26.076Z,993.91
2019-03-28T11:37:27.478Z,993.85
2019-03-28T11:39:19.433Z,994.02
2019-03-28T11:40:19.678Z,994.04
2019-03-28T11:42:23.846Z,994.05
2019-03-28T11:43:24.092Z,994.08
2019-03-28T11:45:28.282Z,993.88
2019-03-28T11:46:28.527Z,993.81
2019-03-28T11:48:32.716Z,993.68
2019-03-28T11:49:32.964Z,993.62
2019-03-28T11:51:37.159Z,993.57
2019-03-28T11:52:37.408Z,993.55
2019-03-28T11:54:41.599Z,993.51
2019-03-28T11:55:41.846Z,993.48
2019-03-28T11:57:46.021Z,993.47
2019-03-28T11:58:46.266Z,993.43
2019-03-28T12:00:50.460Z,993.41
2019-03-28T12:01:59.919Z,993.37
2019-03-28T12:03:54.889Z,993.43
2019-03-28T12:04:55.139Z,993.33
2019-03-28T12:06:59.314Z,993.43
2019-03-28T12:07:59.561Z,993.40
2019-03-28T12:09:52.675Z,993.46
2019-03-28T12:10:52.919Z,993.46
2019-03-28T12:12:57.105Z,993.47
2019-03-28T12:13:59.725Z,993.45
2019-03-28T12:16:01.539Z,993.45
2019-03-28T12:17:01.813Z,993.45
2019-03-28T12:19:05.978Z,993.38
2019-03-28T12:20:06.221Z,993.38
2019-03-28T12:22:10.396Z,993.40
2019-03-28T12:23:10.626Z,993.41
2019-03-28T12:25:14.991Z,993.44
2019-03-28T12:26:15.132Z,993.44
2019-03-28T12:28:19.404Z,993.51
2019-03-28T12:29:19.835Z,993.54
2019-03-28T12:31:24.003Z,993.51
2019-03-28T12:32:24.296Z,993.50
2019-03-28T12:34:28.519Z,993.51
2019-03-28T12:35:28.740Z,993.49
2019-03-28T12:37:32.907Z,993.46
2019-03-28T12:38:33.156Z,993.50
2019-03-28T12:40:37.377Z,993.57
2019-03-28T12:41:37.724Z,993.57
2019-03-28T12:43:41.925Z,993.56
2019-03-28T12:44:42.167Z,993.60
2019-03-28T12:46:46.436Z,993.52
2019-03-28T12:47:46.678Z,993.62
2019-03-28T12:49:39.791Z,993.59
2019-03-28T12:50:40.036Z,993.57
2019-03-28T12:52:44.906Z,993.65
2019-03-28T12:53:44.465Z,993.70
2019-03-28T12:55:48.647Z,993.68
2019-03-28T12:56:48.895Z,993.69
2019-03-28T12:58:53.062Z,993.67
2019-03-28T12:59:53.711Z,993.56
2019-03-28T13:01:57.504Z,993.54
2019-03-28T13:02:57.749Z,993.58
2019-03-28T13:05:02.796Z,993.52
2019-03-28T13:06:03.046Z,993.52
2019-03-28T13:08:07.244Z,993.50
2019-03-28T13:09:07.490Z,993.48
2019-03-28T13:11:11.689Z,993.45
2019-03-28T13:12:11.940Z,993.49
2019-03-28T13:14:16.128Z,993.40
2019-03-28T13:15:16.376Z,993.41
2019-03-28T13:17:20.545Z,993.38
2019-03-28T13:18:20.792Z,993.37
2019-03-28T13:20:24.980Z,993.30
2019-03-28T13:21:25.228Z,993.31
2019-03-28T13:23:29.398Z,993.25
2019-03-28T13:24:29.641Z,993.28
2019-03-28T13:26:33.828Z,993.32
2019-03-28T13:27:34.708Z,993.26
2019-03-28T13:29:27.196Z,993.28
2019-03-28T13:30:27.443Z,993.25
2019-03-28T13:32:41.816Z,993.25
2019-03-28T13:33:31.860Z,993.26
2019-03-28T13:35:36.068Z,993.24
2019-03-28T13:36:36.298Z,993.20
2019-03-28T13:38:40.460Z,993.16
2019-03-28T13:39:40.707Z,993.09
2019-03-28T13:41:46.017Z,993.04
2019-03-28T13:42:45.138Z,993.10
2019-03-28T13:44:49.324Z,993.12
2019-03-28T13:45:49.567Z,993.19
2019-03-28T13:47:54.400Z,993.05
2019-03-28T13:48:53.982Z,993.05
2019-03-28T13:50:58.168Z,993.05
2019-03-28T13:51:58.411Z,993.03
2019-03-28T13:54:02.571Z,993.02
2019-03-28T13:55:02.814Z,992.94
2019-03-28T13:57:07.001Z,993.00
2019-03-28T13:58:07.247Z,993.00
2019-03-28T14:00:00.431Z,992.94
2019-03-28T14:01:00.599Z,992.95
2019-03-28T14:03:04.765Z,992.94
2019-03-28T14:04:05.009Z,992.99
2019-03-28T14:06:09.190Z,992.95
2019-03-28T14:07:09.465Z,992.99
2019-03-28T14:09:13.610Z,992.89
2019-03-28T14:10:13.849Z,992.89
2019-03-28T14:12:18.029Z,992.95
2019-03-28T14:13:18.269Z,992.93
2019-03-28T14:15:22.448Z,992.90
2019-03-28T14:16:23.119Z,992.91
2019-03-28T14:18:26.850Z,992.90
2019-03-28T14:19:27.101Z,992.85
2019-03-28T14:21:31.278Z,992.85
2019-03-28T14:22:31.520Z,992.81
2019-03-28T14:24:35.703Z,992.82
2019-03-28T14:25:35.949Z,992.82
2019-03-28T14:27:40.107Z,992.87
2019-03-28T14:28:40.348Z,992.86
2019-03-28T14:30:44.527Z,992.87
2019-03-28T14:31:44.767Z,992.76
2019-03-28T14:33:48.923Z,992.86
2019-03-28T14:34:49.167Z,992.83
2019-03-28T14:36:53.346Z,992.88
2019-03-28T14:37:53.588Z,992.80
2019-03-28T14:39:49.209Z,992.76
2019-03-28T14:40:46.957Z,992.85
2019-03-28T14:42:51.117Z,992.82
2019-03-28T14:43:51.359Z,992.79
2019-03-28T14:45:55.553Z,992.73
2019-03-28T14:46:55.778Z,992.76
2019-03-28T14:48:59.966Z,992.68
2019-03-28T14:50:00.284Z,992.69
2019-03-28T14:52:04.378Z,992.73
2019-03-28T14:53:04.613Z,992.74
2019-03-28T14:55:08.816Z,992.76
2019-03-28T14:56:09.055Z,992.79
2019-03-28T14:58:13.206Z,992.80
2019-03-28T14:59:13.447Z,992.81
2019-03-28T15:01:17.639Z,992.84
2019-03-28T15:02:17.884Z,992.83
2019-03-28T15:04:22.034Z,992.81
2019-03-28T15:05:22.277Z,992.82
2019-03-28T15:07:26.457Z,992.84
2019-03-28T15:08:26.701Z,992.80
2019-03-28T15:10:30.880Z,992.83
2019-03-28T15:11:31.124Z,992.85
2019-03-28T15:13:35.275Z,992.84
2019-03-28T15:14:35.516Z,992.85
2019-03-28T15:16:39.698Z,992.86
2019-03-28T15:17:39.936Z,992.85
2019-03-28T15:19:33.055Z,992.84
2019-03-28T15:20:33.280Z,992.81
2019-03-28T15:22:37.456Z,992.81
2019-03-28T15:23:37.698Z,992.80
2019-03-28T15:25:41.876Z,992.82
2019-03-28T15:26:42.303Z,992.76
2019-03-28T15:28:46.273Z,992.73
2019-03-28T15:29:46.517Z,992.77
2019-03-28T15:31:50.693Z,992.74
2019-03-28T15:32:50.937Z,992.76
2019-03-28T15:34:55.114Z,992.70
2019-03-28T15:35:55.353Z,992.75
2019-03-28T15:37:59.515Z,992.79
2019-03-28T15:38:59.756Z,992.78
2019-03-28T15:41:03.936Z,992.79
2019-03-28T15:42:04.166Z,992.84
2019-03-28T15:44:08.319Z,992.83
2019-03-28T15:45:08.558Z,992.88
2019-03-28T15:47:12.735Z,992.90
2019-03-28T15:48:12.975Z,992.88
2019-03-28T15:50:17.154Z,992.83
2019-03-28T15:51:17.394Z,992.91
2019-03-28T15:53:21.559Z,992.94
2019-03-28T15:54:21.804Z,992.94
2019-03-28T15:56:25.976Z,992.93
2019-03-28T15:57:26.216Z,992.97
2019-03-28T15:59:19.302Z,992.93
2019-03-28T16:00:19.539Z,992.93
2019-03-28T16:02:23.713Z,992.94
2019-03-28T16:03:23.953Z,992.92
2019-03-28T16:05:28.127Z,992.92
2019-03-28T16:06:28.374Z,992.94
2019-03-28T16:08:32.525Z,992.97
2019-03-28T16:09:32.763Z,992.93
2019-03-28T16:11:36.940Z,992.92
2019-03-28T16:12:37.180Z,992.91
2019-03-28T16:14:41.336Z,992.87
2019-03-28T16:15:41.576Z,992.91
2019-03-28T16:17:45.754Z,992.88
2019-03-28T16:18:45.992Z,992.90
2019-03-28T16:20:53.328Z,992.84
2019-03-28T16:21:50.408Z,992.86
2019-03-28T16:23:54.562Z,992.88
2019-03-28T16:24:54.803Z,992.90
2019-03-28T16:26:58.978Z,992.86
2019-03-28T16:27:59.223Z,992.88
2019-03-28T16:29:54.333Z,992.88
2019-03-28T16:30:52.538Z,992.89
2019-03-28T16:32:56.745Z,992.87
2019-03-28T16:34:06.639Z,992.85
2019-03-28T16:36:01.167Z,992.82
2019-03-28T16:37:01.805Z,992.83
2019-03-28T16:39:05.560Z,992.82
2019-03-28T16:40:05.802Z,992.82
2019-03-28T16:42:09.979Z,992.87
2019-03-28T16:43:10.221Z,992.88
2019-03-28T16:45:14.375Z,992.84
2019-03-28T16:46:14.620Z,992.88
2019-03-28T16:48:18.785Z,992.88
2019-03-28T16:49:19.024Z,992.88
2019-03-28T16:51:23.214Z,992.90
2019-03-28T16:52:23.457Z,992.90
2019-03-28T16:54:27.949Z,992.92
2019-03-28T16:55:28.289Z,992.90
2019-03-28T16:57:32.033Z,992.89
2019-03-28T16:58:32.285Z,992.93
2019-03-28T17:00:36.473Z,992.90
2019-03-28T17:01:36.710Z,992.90
2019-03-28T17:03:40.873Z,992.85
2019-03-28T17:04:41.110Z,992.82
2019-03-28T17:06:45.284Z,992.84
2019-03-28T17:07:45.538Z,992.84
2019-03-28T17:09:39.262Z,992.88
2019-03-28T17:10:39.023Z,992.90
2019-03-28T17:12:43.233Z,992.90
2019-03-28T17:13:46.195Z,992.92
2019-03-28T17:15:47.780Z,992.91
2019-03-28T17:16:48.086Z,992.93
2019-03-28T17:18:52.249Z,992.90
2019-03-28T17:19:52.503Z,992.90
2019-03-28T17:21:56.749Z,992.94
2019-03-28T17:22:57.109Z,992.93
2019-03-28T17:25:01.305Z,993.00
2019-03-28T17:26:01.581Z,993.03
2019-03-28T17:28:05.898Z,993.06
2019-03-28T17:29:06.185Z,993.10
2019-03-28T17:31:10.384Z,993.14
2019-03-28T17:32:11.032Z,993.14
2019-03-28T17:34:14.764Z,993.17
2019-03-28T17:35:15.034Z,993.14
2019-03-28T17:37:19.330Z,993.20
2019-03-28T17:38:19.642Z,993.19
2019-03-28T17:40:23.827Z,993.15
2019-03-28T17:41:24.065Z,993.15
2019-03-28T17:43:28.372Z,993.08
2019-03-28T17:44:28.741Z,993.05
2019-03-28T17:46:33.075Z,993.09
2019-03-28T17:47:33.433Z,993.14
2019-03-28T17:49:26.564Z,993.09
2019-03-28T17:50:26.811Z,993.09
2019-03-28T17:52:31.038Z,993.06
2019-03-28T17:53:31.303Z,993.09
2019-03-28T17:55:35.457Z,993.10
2019-03-28T17:56:35.770Z,993.09
2019-03-28T17:58:39.994Z,993.08
2019-03-28T17:59:40.258Z,993.08
2019-03-28T18:01:44.435Z,993.07
2019-03-28T18:02:44.696Z,993.05
2019-03-28T18:04:48.848Z,992.99
2019-03-28T18:05:58.099Z,993.05
2019-03-28T18:07:53.744Z,992.97
2019-03-28T18:08:53.541Z,992.98
2019-03-28T18:11:00.282Z,992.97
2019-03-28T18:11:58.012Z,993.01
2019-03-28T18:14:02.241Z,993.04
2019-03-28T18:15:02.519Z,993.04
2019-03-28T18:17:06.743Z,993.13
2019-03-28T18:18:06.979Z,993.08
2019-03-28T18:20:00.105Z,993.14
2019-03-28T18:21:00.298Z,993.12
2019-03-28T18:23:04.520Z,993.15
2019-03-28T18:24:04.764Z,993.14
2019-03-28T18:26:08.940Z,993.19
2019-03-28T18:27:09.205Z,993.21
2019-03-28T18:29:13.444Z,993.26
2019-03-28T18:30:13.718Z,993.26
2019-03-28T18:32:18.794Z,993.29
2019-03-28T18:33:18.269Z,993.29
2019-03-28T18:35:22.401Z,993.35
2019-03-28T18:36:22.678Z,993.37
2019-03-28T18:38:26.849Z,993.40
2019-03-28T18:39:27.089Z,993.37
2019-03-28T18:41:31.259Z,993.38
2019-03-28T18:42:31.767Z,993.41
2019-03-28T18:44:35.650Z,993.42
2019-03-28T18:45:35.891Z,993.44
2019-03-28T18:47:40.060Z,993.45
2019-03-28T18:48:40.341Z,993.47
2019-03-28T18:50:44.528Z,993.45
2019-03-28T18:51:44.762Z,993.40
2019-03-28T18:53:49.009Z,993.43
2019-03-28T18:54:49.269Z,993.47
2019-03-28T18:56:53.501Z,993.50
2019-03-28T18:57:53.767Z,993.50
2019-03-28T18:59:46.849Z,993.47
2019-03-28T19:00:48.250Z,993.48
2019-03-28T19:02:51.256Z,993.50
2019-03-28T19:03:51.532Z,993.51
2019-03-28T19:05:55.680Z,993.50